Main page
METAR-TAF:

METAR-TAF

Airports :

Ho Chi Minh City, Vietnam

Tan Son Nhat International Airport

latitude: 10-49N, longitude: 106-40E, elevation: 19 m

Current weather observation

The report was made 22 minutes ago, at 11:30 UTC
Wind 6 kt from the Southeast, varying between East and South/Southeast
Temperature 28°C
Humidity 84%
Pressure 1008 hPa
Visibility 10 km or more
Few clouds at a height of 1700 ft

METAR: VVTS 201130Z 13006KT 100V160 9999 FEW017 28/25 Q1008 NOSIG

Time: 18:52 (11:52 UTC)

Forecast

The report was made 52 minutes ago, at 11:00 UTC
Forecast valid from 20 at 12 UTC to 21 at 18 UTC
Wind 8 kt from the East/Southeast
Visibility 10 km or more
Scattered clouds at a height of 1700 ft
Scattered clouds at a height of 4000 ft

TAF: VVTS 201100Z 2012/2118 12008KT 9999 SCT017 SCT040

Weather observations and forecasts of more than 4000 airports (METAR and TAF reports).

The available stations are represented by yellow and red dots on the map.

Hover mouse over dot to see the name of the station.

Then click to see weather observations and forecasts.

To change the map : click on the green buttons with a black cross to zoom in, on the green button with a dash to zoom out, or on the green arrows for adjacent maps.


METAR-TAF: